sensor_id;sensor_type;location;lat;lon;timestamp;P1;durP1;ratioP1;P2;durP2;ratioP2
15899;SDS011;8048;50.644;6.184;2023-05-10T00:01:05;11.10;;;9.80;;
15899;SDS011;8048;50.644;6.184;2023-05-10T00:03:31;11.60;;;10.33;;
15899;SDS011;8048;50.644;6.184;2023-05-10T00:05:57;10.10;;;8.87;;
15899;SDS011;8048;50.644;6.184;2023-05-10T00:08:22;10.03;;;9.00;;
15899;SDS011;8048;50.644;6.184;2023-05-10T00:10:48;9.10;;;8.20;;
15899;SDS011;8048;50.644;6.184;2023-05-10T00:13:14;12.50;;;9.67;;
15899;SDS011;8048;50.644;6.184;2023-05-10T00:15:39;11.77;;;9.10;;
15899;SDS011;8048;50.644;6.184;2023-05-10T00:18:05;10.50;;;9.00;;
15899;SDS011;8048;50.644;6.184;2023-05-10T00:20:31;11.10;;;9.90;;
15899;SDS011;8048;50.644;6.184;2023-05-10T00:22:56;11.83;;;8.93;;
15899;SDS011;8048;50.644;6.184;2023-05-10T00:25:22;11.63;;;9.93;;
15899;SDS011;8048;50.644;6.184;2023-05-10T00:27:47;14.53;;;11.93;;
15899;SDS011;8048;50.644;6.184;2023-05-10T00:30:13;10.77;;;9.40;;
15899;SDS011;8048;50.644;6.184;2023-05-10T00:32:39;13.20;;;10.00;;
15899;SDS011;8048;50.644;6.184;2023-05-10T00:35:04;13.90;;;11.07;;
15899;SDS011;8048;50.644;6.184;2023-05-10T00:37:30;11.47;;;10.13;;
15899;SDS011;8048;50.644;6.184;2023-05-10T00:39:55;14.60;;;11.33;;
15899;SDS011;8048;50.644;6.184;2023-05-10T00:42:21;11.60;;;9.53;;
15899;SDS011;8048;50.644;6.184;2023-05-10T00:44:47;11.50;;;9.27;;
15899;SDS011;8048;50.644;6.184;2023-05-10T00:47:12;11.30;;;9.70;;
15899;SDS011;8048;50.644;6.184;2023-05-10T00:49:38;8.73;;;8.00;;
15899;SDS011;8048;50.644;6.184;2023-05-10T00:52:04;9.90;;;8.57;;
15899;SDS011;8048;50.644;6.184;2023-05-10T00:54:29;7.80;;;7.10;;
15899;SDS011;8048;50.644;6.184;2023-05-10T00:56:55;6.77;;;5.90;;
15899;SDS011;8048;50.644;6.184;2023-05-10T00:59:22;8.10;;;7.30;;
15899;SDS011;8048;50.644;6.184;2023-05-10T01:01:47;8.93;;;7.77;;
15899;SDS011;8048;50.644;6.184;2023-05-10T01:04:13;6.53;;;5.73;;
15899;SDS011;8048;50.644;6.184;2023-05-10T01:06:40;7.53;;;6.93;;
15899;SDS011;8048;50.644;6.184;2023-05-10T01:09:06;6.63;;;5.97;;
15899;SDS011;8048;50.644;6.184;2023-05-10T01:11:34;6.97;;;6.37;;
15899;SDS011;8048;50.644;6.184;2023-05-10T01:14:01;7.80;;;7.00;;
15899;SDS011;8048;50.644;6.184;2023-05-10T01:16:27;6.20;;;5.70;;
15899;SDS011;8048;50.644;6.184;2023-05-10T01:18:57;4.67;;;4.20;;
15899;SDS011;8048;50.644;6.184;2023-05-10T01:35:39;5.23;;;4.80;;
15899;SDS011;8048;50.644;6.184;2023-05-10T01:46:44;4.63;;;4.30;;
15899;SDS011;8048;50.644;6.184;2023-05-10T01:49:25;4.50;;;3.93;;
15899;SDS011;8048;50.644;6.184;2023-05-10T01:51:54;7.53;;;6.83;;
15899;SDS011;8048;50.644;6.184;2023-05-10T01:54:25;5.63;;;4.90;;
15899;SDS011;8048;50.644;6.184;2023-05-10T01:56:58;6.13;;;4.50;;
15899;SDS011;8048;50.644;6.184;2023-05-10T01:59:30;4.37;;;4.07;;
15899;SDS011;8048;50.644;6.184;2023-05-10T02:02:01;4.80;;;4.40;;
15899;SDS011;8048;50.644;6.184;2023-05-10T02:04:29;5.87;;;5.37;;
15899;SDS011;8048;50.644;6.184;2023-05-10T02:06:56;7.67;;;5.43;;
15899;SDS011;8048;50.644;6.184;2023-05-10T02:09:22;4.10;;;3.80;;
15899;SDS011;8048;50.644;6.184;2023-05-10T02:11:50;5.17;;;4.67;;
15899;SDS011;8048;50.644;6.184;2023-05-10T02:14:16;5.93;;;5.53;;
15899;SDS011;8048;50.644;6.184;2023-05-10T02:16:43;4.50;;;4.20;;
15899;SDS011;8048;50.644;6.184;2023-05-10T02:19:11;4.53;;;4.20;;
15899;SDS011;8048;50.644;6.184;2023-05-10T02:21:39;4.13;;;3.80;;
15899;SDS011;8048;50.644;6.184;2023-05-10T02:24:05;3.90;;;3.60;;
15899;SDS011;8048;50.644;6.184;2023-05-10T02:26:31;4.87;;;4.47;;
15899;SDS011;8048;50.644;6.184;2023-05-10T02:28:58;7.90;;;6.33;;
15899;SDS011;8048;50.644;6.184;2023-05-10T02:31:28;6.20;;;5.70;;
15899;SDS011;8048;50.644;6.184;2023-05-10T02:33:55;7.23;;;6.60;;
15899;SDS011;8048;50.644;6.184;2023-05-10T02:36:22;11.27;;;9.03;;
15899;SDS011;8048;50.644;6.184;2023-05-10T02:38:48;7.70;;;7.00;;
15899;SDS011;8048;50.644;6.184;2023-05-10T02:41:16;11.60;;;7.40;;
15899;SDS011;8048;50.644;6.184;2023-05-10T02:43:43;11.57;;;9.40;;
15899;SDS011;8048;50.644;6.184;2023-05-10T02:46:09;9.77;;;8.77;;
15899;SDS011;8048;50.644;6.184;2023-05-10T02:48:35;12.37;;;10.37;;
15899;SDS011;8048;50.644;6.184;2023-05-10T02:51:02;8.90;;;7.90;;
15899;SDS011;8048;50.644;6.184;2023-05-10T02:53:33;11.37;;;9.33;;
15899;SDS011;8048;50.644;6.184;2023-05-10T02:56:01;10.83;;;8.70;;
15899;SDS011;8048;50.644;6.184;2023-05-10T02:58:37;10.97;;;9.83;;
15899;SDS011;8048;50.644;6.184;2023-05-10T03:01:02;11.57;;;9.77;;
15899;SDS011;8048;50.644;6.184;2023-05-10T03:03:28;13.37;;;11.27;;
15899;SDS011;8048;50.644;6.184;2023-05-10T03:05:53;11.53;;;10.33;;
15899;SDS011;8048;50.644;6.184;2023-05-10T03:08:21;13.83;;;12.43;;
15899;SDS011;8048;50.644;6.184;2023-05-10T03:13:44;10.60;;;9.40;;
15899;SDS011;8048;50.644;6.184;2023-05-10T03:16:42;9.70;;;8.70;;
15899;SDS011;8048;50.644;6.184;2023-05-10T03:19:15;12.10;;;10.73;;
15899;SDS011;8048;50.644;6.184;2023-05-10T03:22:03;11.83;;;9.03;;
15899;SDS011;8048;50.644;6.184;2023-05-10T03:24:31;9.50;;;8.13;;
15899;SDS011;8048;50.644;6.184;2023-05-10T03:26:59;10.00;;;8.97;;
15899;SDS011;8048;50.644;6.184;2023-05-10T03:29:27;12.37;;;9.60;;
15899;SDS011;8048;50.644;6.184;2023-05-10T03:31:54;13.20;;;9.10;;
15899;SDS011;8048;50.644;6.184;2023-05-10T03:34:23;9.43;;;8.43;;
15899;SDS011;8048;50.644;6.184;2023-05-10T03:36:49;11.50;;;9.37;;
15899;SDS011;8048;50.644;6.184;2023-05-10T03:39:14;8.37;;;7.47;;
15899;SDS011;8048;50.644;6.184;2023-05-10T03:41:40;9.13;;;8.10;;
15899;SDS011;8048;50.644;6.184;2023-05-10T03:44:06;10.77;;;7.67;;
15899;SDS011;8048;50.644;6.184;2023-05-10T03:46:31;11.33;;;8.10;;
15899;SDS011;8048;50.644;6.184;2023-05-10T03:48:57;9.40;;;8.40;;
15899;SDS011;8048;50.644;6.184;2023-05-10T03:51:22;14.67;;;8.20;;
15899;SDS011;8048;50.644;6.184;2023-05-10T03:53:50;12.97;;;7.20;;
15899;SDS011;8048;50.644;6.184;2023-05-10T03:56:15;9.70;;;8.63;;
15899;SDS011;8048;50.644;6.184;2023-05-10T03:58:41;10.00;;;7.70;;
15899;SDS011;8048;50.644;6.184;2023-05-10T04:01:06;12.13;;;7.67;;
15899;SDS011;8048;50.644;6.184;2023-05-10T04:03:32;10.40;;;6.97;;
15899;SDS011;8048;50.644;6.184;2023-05-10T04:06:01;7.63;;;6.93;;
15899;SDS011;8048;50.644;6.184;2023-05-10T04:08:27;9.00;;;7.13;;
15899;SDS011;8048;50.644;6.184;2023-05-10T04:10:53;12.00;;;6.87;;
15899;SDS011;8048;50.644;6.184;2023-05-10T04:13:18;8.60;;;7.27;;
15899;SDS011;8048;50.644;6.184;2023-05-10T04:15:44;8.53;;;5.77;;
15899;SDS011;8048;50.644;6.184;2023-05-10T04:18:10;7.77;;;6.97;;
15899;SDS011;8048;50.644;6.184;2023-05-10T04:20:36;7.00;;;5.77;;
15899;SDS011;8048;50.644;6.184;2023-05-10T04:23:02;6.20;;;5.60;;
15899;SDS011;8048;50.644;6.184;2023-05-10T04:25:27;7.07;;;6.40;;
15899;SDS011;8048;50.644;6.184;2023-05-10T04:27:53;11.53;;;7.47;;
15899;SDS011;8048;50.644;6.184;2023-05-10T04:30:19;9.10;;;6.20;;
15899;SDS011;8048;50.644;6.184;2023-05-10T04:32:44;7.33;;;6.60;;
15899;SDS011;8048;50.644;6.184;2023-05-10T04:35:10;7.00;;;5.53;;
15899;SDS011;8048;50.644;6.184;2023-05-10T04:37:35;7.17;;;6.27;;
15899;SDS011;8048;50.644;6.184;2023-05-10T04:40:01;10.10;;;7.10;;
15899;SDS011;8048;50.644;6.184;2023-05-10T04:42:28;8.07;;;7.23;;
15899;SDS011;8048;50.644;6.184;2023-05-10T04:44:54;9.03;;;6.67;;
15899;SDS011;8048;50.644;6.184;2023-05-10T04:47:19;11.40;;;6.60;;
15899;SDS011;8048;50.644;6.184;2023-05-10T04:49:45;9.03;;;6.33;;
15899;SDS011;8048;50.644;6.184;2023-05-10T04:52:10;9.77;;;7.10;;
15899;SDS011;8048;50.644;6.184;2023-05-10T04:54:36;6.40;;;4.97;;
15899;SDS011;8048;50.644;6.184;2023-05-10T04:57:02;10.77;;;7.70;;
15899;SDS011;8048;50.644;6.184;2023-05-10T04:59:27;13.60;;;7.30;;
15899;SDS011;8048;50.644;6.184;2023-05-10T05:01:53;9.10;;;6.70;;
15899;SDS011;8048;50.644;6.184;2023-05-10T05:04:18;11.77;;;6.50;;
15899;SDS011;8048;50.644;6.184;2023-05-10T05:06:44;8.97;;;6.30;;
15899;SDS011;8048;50.644;6.184;2023-05-10T05:09:09;7.37;;;6.00;;
15899;SDS011;8048;50.644;6.184;2023-05-10T05:11:35;6.70;;;5.47;;
15899;SDS011;8048;50.644;6.184;2023-05-10T05:14:01;8.23;;;6.80;;
15899;SDS011;8048;50.644;6.184;2023-05-10T05:16:26;11.77;;;7.60;;
15899;SDS011;8048;50.644;6.184;2023-05-10T05:18:52;7.40;;;6.23;;
15899;SDS011;8048;50.644;6.184;2023-05-10T05:21:18;10.80;;;6.70;;
15899;SDS011;8048;50.644;6.184;2023-05-10T05:23:44;7.17;;;5.47;;
15899;SDS011;8048;50.644;6.184;2023-05-10T05:26:10;6.83;;;5.80;;
15899;SDS011;8048;50.644;6.184;2023-05-10T05:28:36;6.93;;;5.67;;
15899;SDS011;8048;50.644;6.184;2023-05-10T05:31:02;7.07;;;6.37;;
15899;SDS011;8048;50.644;6.184;2023-05-10T05:33:32;5.53;;;5.13;;
15899;SDS011;8048;50.644;6.184;2023-05-10T05:36:01;5.97;;;5.37;;
15899;SDS011;8048;50.644;6.184;2023-05-10T05:38:28;5.10;;;4.60;;
15899;SDS011;8048;50.644;6.184;2023-05-10T05:40:53;6.07;;;5.47;;
15899;SDS011;8048;50.644;6.184;2023-05-10T05:43:19;6.00;;;4.87;;
15899;SDS011;8048;50.644;6.184;2023-05-10T05:45:44;6.37;;;5.37;;
15899;SDS011;8048;50.644;6.184;2023-05-10T05:48:10;4.70;;;4.30;;
15899;SDS011;8048;50.644;6.184;2023-05-10T05:50:36;5.47;;;5.07;;
15899;SDS011;8048;50.644;6.184;2023-05-10T05:53:01;5.33;;;4.57;;
15899;SDS011;8048;50.644;6.184;2023-05-10T05:55:27;3.43;;;3.13;;
15899;SDS011;8048;50.644;6.184;2023-05-10T05:57:54;5.60;;;4.17;;
15899;SDS011;8048;50.644;6.184;2023-05-10T06:00:20;4.17;;;3.87;;
15899;SDS011;8048;50.644;6.184;2023-05-10T06:02:46;5.67;;;3.50;;
15899;SDS011;8048;50.644;6.184;2023-05-10T06:05:11;4.23;;;3.87;;
15899;SDS011;8048;50.644;6.184;2023-05-10T06:07:38;6.33;;;3.70;;
15899;SDS011;8048;50.644;6.184;2023-05-10T06:10:07;5.27;;;4.03;;
15899;SDS011;8048;50.644;6.184;2023-05-10T06:12:33;4.20;;;3.90;;
15899;SDS011;8048;50.644;6.184;2023-05-10T06:14:58;3.93;;;3.53;;
15899;SDS011;8048;50.644;6.184;2023-05-10T06:17:24;3.60;;;3.37;;
15899;SDS011;8048;50.644;6.184;2023-05-10T06:19:50;3.47;;;3.27;;
15899;SDS011;8048;50.644;6.184;2023-05-10T06:22:15;2.83;;;2.63;;
15899;SDS011;8048;50.644;6.184;2023-05-10T06:24:41;3.17;;;2.87;;
15899;SDS011;8048;50.644;6.184;2023-05-10T06:27:06;2.90;;;2.70;;
15899;SDS011;8048;50.644;6.184;2023-05-10T06:29:32;3.07;;;2.77;;
15899;SDS011;8048;50.644;6.184;2023-05-10T06:31:58;3.03;;;2.83;;
15899;SDS011;8048;50.644;6.184;2023-05-10T06:34:24;2.47;;;2.37;;
15899;SDS011;8048;50.644;6.184;2023-05-10T06:36:49;2.33;;;2.23;;
15899;SDS011;8048;50.644;6.184;2023-05-10T06:39:15;2.27;;;2.17;;
15899;SDS011;8048;50.644;6.184;2023-05-10T06:41:41;2.27;;;2.10;;
15899;SDS011;8048;50.644;6.184;2023-05-10T06:44:06;2.00;;;2.00;;
15899;SDS011;8048;50.644;6.184;2023-05-10T06:46:33;2.20;;;2.10;;
15899;SDS011;8048;50.644;6.184;2023-05-10T06:48:58;1.80;;;1.70;;
15899;SDS011;8048;50.644;6.184;2023-05-10T06:51:24;2.13;;;2.03;;
15899;SDS011;8048;50.644;6.184;2023-05-10T06:53:51;1.87;;;1.77;;
15899;SDS011;8048;50.644;6.184;2023-05-10T06:56:16;2.03;;;1.93;;
15899;SDS011;8048;50.644;6.184;2023-05-10T06:58:42;2.10;;;2.00;;
15899;SDS011;8048;50.644;6.184;2023-05-10T07:01:07;3.30;;;1.90;;
15899;SDS011;8048;50.644;6.184;2023-05-10T07:03:33;2.30;;;2.10;;
15899;SDS011;8048;50.644;6.184;2023-05-10T07:06:02;2.00;;;1.90;;
15899;SDS011;8048;50.644;6.184;2023-05-10T07:08:29;2.13;;;2.03;;
15899;SDS011;8048;50.644;6.184;2023-05-10T07:13:30;2.50;;;2.40;;
15899;SDS011;8048;50.644;6.184;2023-05-10T07:15:57;2.63;;;2.53;;
15899;SDS011;8048;50.644;6.184;2023-05-10T07:18:23;2.73;;;2.63;;
15899;SDS011;8048;50.644;6.184;2023-05-10T07:20:49;2.80;;;2.70;;
15899;SDS011;8048;50.644;6.184;2023-05-10T07:23:14;2.83;;;2.63;;
15899;SDS011;8048;50.644;6.184;2023-05-10T07:25:40;2.80;;;2.70;;
15899;SDS011;8048;50.644;6.184;2023-05-10T07:28:05;3.43;;;3.23;;
15899;SDS011;8048;50.644;6.184;2023-05-10T07:30:31;3.00;;;2.80;;
15899;SDS011;8048;50.644;6.184;2023-05-10T07:32:56;4.60;;;4.30;;
15899;SDS011;8048;50.644;6.184;2023-05-10T07:35:22;3.70;;;3.50;;
15899;SDS011;8048;50.644;6.184;2023-05-10T07:37:47;3.07;;;2.87;;
15899;SDS011;8048;50.644;6.184;2023-05-10T07:40:13;3.50;;;3.30;;
15899;SDS011;8048;50.644;6.184;2023-05-10T07:42:38;3.67;;;3.37;;
15899;SDS011;8048;50.644;6.184;2023-05-10T07:45:04;3.50;;;3.30;;
15899;SDS011;8048;50.644;6.184;2023-05-10T07:47:30;2.80;;;2.70;;
15899;SDS011;8048;50.644;6.184;2023-05-10T07:49:56;3.00;;;2.80;;
15899;SDS011;8048;50.644;6.184;2023-05-10T07:52:21;2.57;;;2.47;;
15899;SDS011;8048;50.644;6.184;2023-05-10T07:54:47;2.47;;;2.37;;
15899;SDS011;8048;50.644;6.184;2023-05-10T07:57:12;2.33;;;2.23;;
15899;SDS011;8048;50.644;6.184;2023-05-10T07:59:40;2.70;;;2.50;;
15899;SDS011;8048;50.644;6.184;2023-05-10T08:02:06;2.57;;;2.47;;
15899;SDS011;8048;50.644;6.184;2023-05-10T08:04:31;2.80;;;2.60;;
15899;SDS011;8048;50.644;6.184;2023-05-10T08:06:57;2.83;;;2.73;;
15899;SDS011;8048;50.644;6.184;2023-05-10T08:09:22;2.87;;;2.67;;
15899;SDS011;8048;50.644;6.184;2023-05-10T08:11:49;2.60;;;2.50;;
15899;SDS011;8048;50.644;6.184;2023-05-10T08:14:15;2.17;;;2.10;;
15899;SDS011;8048;50.644;6.184;2023-05-10T08:16:41;2.67;;;2.57;;
15899;SDS011;8048;50.644;6.184;2023-05-10T08:19:07;2.50;;;2.40;;
15899;SDS011;8048;50.644;6.184;2023-05-10T08:21:33;2.40;;;2.30;;
15899;SDS011;8048;50.644;6.184;2023-05-10T08:23:58;2.23;;;2.17;;
15899;SDS011;8048;50.644;6.184;2023-05-10T08:26:24;2.07;;;1.97;;
15899;SDS011;8048;50.644;6.184;2023-05-10T08:28:49;2.70;;;2.60;;
15899;SDS011;8048;50.644;6.184;2023-05-10T08:31:15;2.10;;;2.00;;
15899;SDS011;8048;50.644;6.184;2023-05-10T08:33:41;3.20;;;2.90;;
15899;SDS011;8048;50.644;6.184;2023-05-10T08:36:06;2.00;;;2.00;;
15899;SDS011;8048;50.644;6.184;2023-05-10T08:38:32;2.33;;;2.23;;
15899;SDS011;8048;50.644;6.184;2023-05-10T08:40:57;2.40;;;2.30;;
15899;SDS011;8048;50.644;6.184;2023-05-10T08:43:27;2.20;;;2.10;;
15899;SDS011;8048;50.644;6.184;2023-05-10T08:45:56;1.87;;;1.87;;
15899;SDS011;8048;50.644;6.184;2023-05-10T08:48:25;2.20;;;2.10;;
15899;SDS011;8048;50.644;6.184;2023-05-10T08:50:53;1.87;;;1.87;;
15899;SDS011;8048;50.644;6.184;2023-05-10T08:53:21;1.80;;;1.70;;
15899;SDS011;8048;50.644;6.184;2023-05-10T08:55:52;1.70;;;1.70;;
15899;SDS011;8048;50.644;6.184;2023-05-10T08:58:18;1.60;;;1.60;;
15899;SDS011;8048;50.644;6.184;2023-05-10T09:00:44;1.80;;;1.80;;
15899;SDS011;8048;50.644;6.184;2023-05-10T09:03:11;2.10;;;2.00;;
15899;SDS011;8048;50.644;6.184;2023-05-10T09:05:38;1.60;;;1.60;;
15899;SDS011;8048;50.644;6.184;2023-05-10T09:08:03;1.90;;;1.90;;
15899;SDS011;8048;50.644;6.184;2023-05-10T09:10:30;2.17;;;2.10;;
15899;SDS011;8048;50.644;6.184;2023-05-10T09:12:56;1.87;;;1.87;;
15899;SDS011;8048;50.644;6.184;2023-05-10T09:15:22;1.70;;;1.70;;
15899;SDS011;8048;50.644;6.184;2023-05-10T09:17:49;1.70;;;1.70;;
15899;SDS011;8048;50.644;6.184;2023-05-10T09:20:14;1.60;;;1.60;;
15899;SDS011;8048;50.644;6.184;2023-05-10T09:22:42;2.50;;;1.60;;
15899;SDS011;8048;50.644;6.184;2023-05-10T09:25:14;1.40;;;1.40;;
15899;SDS011;8048;50.644;6.184;2023-05-10T09:27:41;1.77;;;1.77;;
15899;SDS011;8048;50.644;6.184;2023-05-10T09:30:10;1.50;;;1.50;;
15899;SDS011;8048;50.644;6.184;2023-05-10T09:32:44;1.50;;;1.50;;
15899;SDS011;8048;50.644;6.184;2023-05-10T09:35:14;2.87;;;1.60;;
15899;SDS011;8048;50.644;6.184;2023-05-10T09:37:49;1.67;;;1.67;;
15899;SDS011;8048;50.644;6.184;2023-05-10T09:40:19;1.70;;;1.70;;
15899;SDS011;8048;50.644;6.184;2023-05-10T09:45:44;1.60;;;1.60;;
15899;SDS011;8048;50.644;6.184;2023-05-10T09:48:14;1.43;;;1.43;;
15899;SDS011;8048;50.644;6.184;2023-05-10T09:50:40;2.00;;;1.90;;
15899;SDS011;8048;50.644;6.184;2023-05-10T09:53:06;2.00;;;1.90;;
15899;SDS011;8048;50.644;6.184;2023-05-10T09:55:39;1.60;;;1.60;;
15899;SDS011;8048;50.644;6.184;2023-05-10T09:58:14;1.80;;;1.80;;
15899;SDS011;8048;50.644;6.184;2023-05-10T10:00:40;1.73;;;1.73;;
15899;SDS011;8048;50.644;6.184;2023-05-10T10:03:14;1.90;;;1.90;;
15899;SDS011;8048;50.644;6.184;2023-05-10T10:05:41;2.23;;;2.13;;
15899;SDS011;8048;50.644;6.184;2023-05-10T10:08:08;1.90;;;1.90;;
15899;SDS011;8048;50.644;6.184;2023-05-10T10:10:34;2.37;;;2.27;;
15899;SDS011;8048;50.644;6.184;2023-05-10T10:13:00;2.40;;;2.30;;
15899;SDS011;8048;50.644;6.184;2023-05-10T10:15:26;2.20;;;2.10;;
15899;SDS011;8048;50.644;6.184;2023-05-10T10:17:52;2.33;;;2.23;;
15899;SDS011;8048;50.644;6.184;2023-05-10T10:20:19;1.90;;;1.80;;
15899;SDS011;8048;50.644;6.184;2023-05-10T10:22:45;2.10;;;2.00;;
15899;SDS011;8048;50.644;6.184;2023-05-10T10:25:12;2.03;;;1.83;;
15899;SDS011;8048;50.644;6.184;2023-05-10T10:35:46;2.00;;;1.97;;
15899;SDS011;8048;50.644;6.184;2023-05-10T10:38:12;1.83;;;1.83;;
15899;SDS011;8048;50.644;6.184;2023-05-10T10:40:38;1.80;;;1.80;;
15899;SDS011;8048;50.644;6.184;2023-05-10T10:46:09;1.90;;;1.80;;
15899;SDS011;8048;50.644;6.184;2023-05-10T10:48:40;4.40;;;1.90;;
15899;SDS011;8048;50.644;6.184;2023-05-10T10:51:06;1.63;;;1.57;;
15899;SDS011;8048;50.644;6.184;2023-05-10T10:53:32;1.50;;;1.50;;
15899;SDS011;8048;50.644;6.184;2023-05-10T10:56:04;1.97;;;1.87;;
15899;SDS011;8048;50.644;6.184;2023-05-10T10:58:35;2.00;;;2.00;;
15899;SDS011;8048;50.644;6.184;2023-05-10T11:01:09;1.97;;;1.90;;
15899;SDS011;8048;50.644;6.184;2023-05-10T11:03:39;3.20;;;2.13;;
15899;SDS011;8048;50.644;6.184;2023-05-10T11:06:04;2.10;;;2.00;;
15899;SDS011;8048;50.644;6.184;2023-05-10T11:08:31;4.00;;;1.77;;
15899;SDS011;8048;50.644;6.184;2023-05-10T11:18:52;2.40;;;2.30;;
15899;SDS011;8048;50.644;6.184;2023-05-10T11:21:33;2.40;;;2.30;;
15899;SDS011;8048;50.644;6.184;2023-05-10T11:24:12;2.47;;;2.27;;
15899;SDS011;8048;50.644;6.184;2023-05-10T11:26:40;1.97;;;1.93;;
15899;SDS011;8048;50.644;6.184;2023-05-10T11:29:05;2.67;;;2.47;;
15899;SDS011;8048;50.644;6.184;2023-05-10T11:31:31;3.10;;;2.50;;
15899;SDS011;8048;50.644;6.184;2023-05-10T11:33:58;2.70;;;2.60;;
15899;SDS011;8048;50.644;6.184;2023-05-10T11:36:27;2.60;;;2.50;;
15899;SDS011;8048;50.644;6.184;2023-05-10T11:38:56;2.97;;;2.37;;
15899;SDS011;8048;50.644;6.184;2023-05-10T11:41:22;2.80;;;1.90;;
15899;SDS011;8048;50.644;6.184;2023-05-10T11:43:54;2.30;;;2.20;;
15899;SDS011;8048;50.644;6.184;2023-05-10T11:46:21;2.33;;;2.23;;
15899;SDS011;8048;50.644;6.184;2023-05-10T11:49:00;2.90;;;2.70;;
15899;SDS011;8048;50.644;6.184;2023-05-10T11:51:29;2.40;;;2.30;;
15899;SDS011;8048;50.644;6.184;2023-05-10T11:53:57;2.20;;;1.80;;
15899;SDS011;8048;50.644;6.184;2023-05-10T11:56:23;2.50;;;2.40;;
15899;SDS011;8048;50.644;6.184;2023-05-10T11:58:53;2.40;;;2.30;;
15899;SDS011;8048;50.644;6.184;2023-05-10T12:01:26;2.80;;;2.27;;
15899;SDS011;8048;50.644;6.184;2023-05-10T12:03:54;2.67;;;2.57;;
15899;SDS011;8048;50.644;6.184;2023-05-10T12:06:26;2.60;;;2.50;;
15899;SDS011;8048;50.644;6.184;2023-05-10T12:08:54;2.77;;;2.67;;
15899;SDS011;8048;50.644;6.184;2023-05-10T12:11:19;2.57;;;2.40;;
15899;SDS011;8048;50.644;6.184;2023-05-10T12:13:49;2.70;;;2.60;;
15899;SDS011;8048;50.644;6.184;2023-05-10T12:16:15;4.63;;;2.40;;
15899;SDS011;8048;50.644;6.184;2023-05-10T12:18:47;2.70;;;2.60;;
15899;SDS011;8048;50.644;6.184;2023-05-10T12:21:14;2.20;;;2.10;;
15899;SDS011;8048;50.644;6.184;2023-05-10T12:23:40;2.50;;;2.40;;
15899;SDS011;8048;50.644;6.184;2023-05-10T12:26:08;1.87;;;1.77;;
15899;SDS011;8048;50.644;6.184;2023-05-10T12:28:35;2.43;;;2.33;;
15899;SDS011;8048;50.644;6.184;2023-05-10T12:31:01;2.73;;;2.53;;
15899;SDS011;8048;50.644;6.184;2023-05-10T12:33:27;2.57;;;2.47;;
15899;SDS011;8048;50.644;6.184;2023-05-10T12:35:59;2.70;;;2.50;;
15899;SDS011;8048;50.644;6.184;2023-05-10T12:38:29;2.60;;;2.50;;
15899;SDS011;8048;50.644;6.184;2023-05-10T12:41:04;1.90;;;1.90;;
15899;SDS011;8048;50.644;6.184;2023-05-10T12:43:31;1.97;;;1.97;;
15899;SDS011;8048;50.644;6.184;2023-05-10T12:45:58;2.33;;;2.23;;
15899;SDS011;8048;50.644;6.184;2023-05-10T12:48:28;1.80;;;1.80;;
15899;SDS011;8048;50.644;6.184;2023-05-10T12:50:56;2.50;;;2.27;;
15899;SDS011;8048;50.644;6.184;2023-05-10T12:53:21;2.10;;;2.00;;
15899;SDS011;8048;50.644;6.184;2023-05-10T12:55:47;2.03;;;1.93;;
15899;SDS011;8048;50.644;6.184;2023-05-10T12:58:13;2.07;;;1.97;;
15899;SDS011;8048;50.644;6.184;2023-05-10T13:00:39;2.07;;;1.97;;
15899;SDS011;8048;50.644;6.184;2023-05-10T13:03:05;2.60;;;2.50;;
15899;SDS011;8048;50.644;6.184;2023-05-10T13:05:33;2.10;;;2.00;;
15899;SDS011;8048;50.644;6.184;2023-05-10T13:07:59;2.13;;;2.03;;
15899;SDS011;8048;50.644;6.184;2023-05-10T13:10:24;1.97;;;1.87;;
15899;SDS011;8048;50.644;6.184;2023-05-10T13:12:50;2.73;;;2.33;;
15899;SDS011;8048;50.644;6.184;2023-05-10T13:15:16;1.70;;;1.60;;
15899;SDS011;8048;50.644;6.184;2023-05-10T13:17:42;2.30;;;2.10;;
15899;SDS011;8048;50.644;6.184;2023-05-10T13:20:08;2.47;;;2.37;;
15899;SDS011;8048;50.644;6.184;2023-05-10T13:22:34;3.23;;;2.70;;
15899;SDS011;8048;50.644;6.184;2023-05-10T13:25:00;2.80;;;2.70;;
15899;SDS011;8048;50.644;6.184;2023-05-10T13:27:26;2.47;;;2.27;;
15899;SDS011;8048;50.644;6.184;2023-05-10T13:29:51;2.43;;;2.33;;
15899;SDS011;8048;50.644;6.184;2023-05-10T13:32:17;2.77;;;2.57;;
15899;SDS011;8048;50.644;6.184;2023-05-10T13:34:42;3.00;;;2.70;;
15899;SDS011;8048;50.644;6.184;2023-05-10T13:37:08;2.37;;;2.27;;
15899;SDS011;8048;50.644;6.184;2023-05-10T13:39:34;2.77;;;2.57;;
15899;SDS011;8048;50.644;6.184;2023-05-10T13:41:59;2.20;;;2.10;;
15899;SDS011;8048;50.644;6.184;2023-05-10T13:44:25;3.17;;;2.97;;
15899;SDS011;8048;50.644;6.184;2023-05-10T13:46:51;2.77;;;2.57;;
15899;SDS011;8048;50.644;6.184;2023-05-10T13:49:16;2.93;;;2.73;;
15899;SDS011;8048;50.644;6.184;2023-05-10T13:51:42;5.63;;;2.77;;
15899;SDS011;8048;50.644;6.184;2023-05-10T13:54:08;2.47;;;2.27;;
15899;SDS011;8048;50.644;6.184;2023-05-10T13:56:34;2.77;;;2.67;;
15899;SDS011;8048;50.644;6.184;2023-05-10T13:58:59;2.30;;;2.20;;
15899;SDS011;8048;50.644;6.184;2023-05-10T14:01:25;2.47;;;2.37;;
15899;SDS011;8048;50.644;6.184;2023-05-10T14:03:51;2.03;;;1.93;;
15899;SDS011;8048;50.644;6.184;2023-05-10T14:06:16;2.10;;;2.00;;
15899;SDS011;8048;50.644;6.184;2023-05-10T14:08:42;3.40;;;3.10;;
15899;SDS011;8048;50.644;6.184;2023-05-10T14:11:08;2.93;;;2.40;;
15899;SDS011;8048;50.644;6.184;2023-05-10T14:13:33;2.30;;;2.10;;
15899;SDS011;8048;50.644;6.184;2023-05-10T14:15:59;2.77;;;2.57;;
15899;SDS011;8048;50.644;6.184;2023-05-10T14:18:25;2.77;;;2.37;;
15899;SDS011;8048;50.644;6.184;2023-05-10T14:20:51;2.63;;;2.43;;
15899;SDS011;8048;50.644;6.184;2023-05-10T14:23:17;2.07;;;1.87;;
15899;SDS011;8048;50.644;6.184;2023-05-10T14:25:44;1.80;;;1.77;;
15899;SDS011;8048;50.644;6.184;2023-05-10T14:28:10;2.30;;;2.10;;
15899;SDS011;8048;50.644;6.184;2023-05-10T14:30:37;2.10;;;2.00;;
15899;SDS011;8048;50.644;6.184;2023-05-10T14:33:02;2.00;;;1.90;;
15899;SDS011;8048;50.644;6.184;2023-05-10T14:35:28;2.10;;;2.00;;
15899;SDS011;8048;50.644;6.184;2023-05-10T14:37:55;2.53;;;2.43;;
15899;SDS011;8048;50.644;6.184;2023-05-10T14:40:21;2.00;;;1.90;;
15899;SDS011;8048;50.644;6.184;2023-05-10T14:42:47;2.00;;;1.90;;
15899;SDS011;8048;50.644;6.184;2023-05-10T14:45:13;1.70;;;1.70;;
15899;SDS011;8048;50.644;6.184;2023-05-10T14:47:38;2.87;;;1.83;;
15899;SDS011;8048;50.644;6.184;2023-05-10T14:50:04;1.83;;;1.83;;
15899;SDS011;8048;50.644;6.184;2023-05-10T14:52:30;1.80;;;1.70;;
15899;SDS011;8048;50.644;6.184;2023-05-10T14:54:56;2.10;;;2.00;;
15899;SDS011;8048;50.644;6.184;2023-05-10T14:57:23;1.60;;;1.50;;
15899;SDS011;8048;50.644;6.184;2023-05-10T14:59:49;1.80;;;1.70;;
15899;SDS011;8048;50.644;6.184;2023-05-10T15:02:14;1.83;;;1.73;;
15899;SDS011;8048;50.644;6.184;2023-05-10T15:04:41;1.90;;;1.83;;
15899;SDS011;8048;50.644;6.184;2023-05-10T15:07:06;2.73;;;1.90;;
15899;SDS011;8048;50.644;6.184;2023-05-10T15:09:32;2.10;;;1.70;;
15899;SDS011;8048;50.644;6.184;2023-05-10T15:11:57;1.30;;;1.30;;
15899;SDS011;8048;50.644;6.184;2023-05-10T15:14:23;1.80;;;1.80;;
15899;SDS011;8048;50.644;6.184;2023-05-10T15:16:49;2.30;;;2.20;;
15899;SDS011;8048;50.644;6.184;2023-05-10T15:19:15;1.97;;;1.87;;
15899;SDS011;8048;50.644;6.184;2023-05-10T15:21:40;1.97;;;1.87;;
15899;SDS011;8048;50.644;6.184;2023-05-10T15:24:07;1.80;;;1.70;;
15899;SDS011;8048;50.644;6.184;2023-05-10T15:26:34;1.93;;;1.80;;
15899;SDS011;8048;50.644;6.184;2023-05-10T15:29:00;2.00;;;1.93;;
15899;SDS011;8048;50.644;6.184;2023-05-10T15:31:25;1.80;;;1.80;;
15899;SDS011;8048;50.644;6.184;2023-05-10T15:33:52;1.80;;;1.70;;
15899;SDS011;8048;50.644;6.184;2023-05-10T15:36:24;1.50;;;1.50;;
15899;SDS011;8048;50.644;6.184;2023-05-10T15:38:50;1.90;;;1.80;;
15899;SDS011;8048;50.644;6.184;2023-05-10T15:41:15;1.57;;;1.47;;
15899;SDS011;8048;50.644;6.184;2023-05-10T15:43:41;1.60;;;1.50;;
15899;SDS011;8048;50.644;6.184;2023-05-10T15:46:06;1.93;;;1.83;;